Time;durP1;ratioP1;P1;durP2;ratioP2;P2;SDS_P1;SDS_P2;PMS_P1;PMS_P2;Temp;Humidity;BMP_temperature;BMP_pressure;BME280_temperature;BME280_humidity;BME280_pressure;Samples;Min_cycle;Max_cycle;Signal;HPM_P1;HPM_P2
2021/07/09 00:02:16;;;;;;;9.93;7.53;;;;;;;29.87;42.22;99843.19;4392271;32;32684;-89
2021/07/09 00:04:45;;;;;;;12.43;7.10;;;;;;;29.89;42.24;99841.97;4405602;32;33213;-88
2021/07/09 00:07:12;;;;;;;10.38;6.87;;;;;;;29.82;42.45;99841.06;4397397;32;32974;-89
2021/07/09 00:09:40;;;;;;;13.35;7.75;;;;;;;29.76;42.59;99842.63;4401029;32;32343;-87
2021/07/09 00:12:08;;;;;;;27.33;7.60;;;;;;;29.74;42.76;99832.97;4393155;32;32669;-87
2021/07/09 00:14:39;;;;;;;12.65;7.55;;;;;;;29.68;42.71;99828.31;4405548;32;33372;-87
2021/07/09 00:17:06;;;;;;;12.40;7.30;;;;;;;29.60;42.90;99831.97;4402471;32;32871;-88
2021/07/09 00:19:35;;;;;;;8.65;7.05;;;;;;;29.69;42.69;99832.72;4395588;32;33823;-87
2021/07/09 00:22:03;;;;;;;11.88;8.10;;;;;;;29.75;42.63;99830.06;4404236;32;33538;-88
2021/07/09 00:24:32;;;;;;;11.60;7.40;;;;;;;29.61;42.56;99828.22;4412817;32;34009;-88
2021/07/09 00:27:03;;;;;;;10.57;7.15;;;;;;;29.51;43.01;99830.34;4404483;32;33505;-87
2021/07/09 00:29:30;;;;;;;8.10;7.40;;;;;;;29.51;42.95;99827.63;4400308;32;33855;-88
2021/07/09 00:31:58;;;;;;;10.80;7.72;;;;;;;29.67;42.50;99827.44;4399631;32;33864;-88
2021/07/09 00:34:26;;;;;;;12.00;6.78;;;;;;;29.67;42.47;99822.00;4404083;32;34812;-88
2021/07/09 00:36:54;;;;;;;8.02;6.80;;;;;;;29.52;42.83;99812.97;4405430;32;34402;-86
2021/07/09 00:39:21;;;;;;;12.45;7.25;;;;;;;29.59;42.85;99808.53;4402805;32;33610;-85
2021/07/09 00:41:51;;;;;;;8.90;6.97;;;;;;;29.49;42.88;99813.38;4404910;32;32297;-86
2021/07/09 00:44:18;;;;;;;8.52;7.00;;;;;;;29.65;42.54;99805.03;4403641;32;33910;-86
2021/07/09 00:46:47;;;;;;;7.62;6.93;;;;;;;29.58;42.85;99812.28;4413190;32;33840;-86
2021/07/09 00:49:15;;;;;;;8.18;6.53;;;;;;;29.59;42.97;99805.81;4400858;32;33382;-86
2021/07/09 00:51:45;;;;;;;8.73;7.82;;;;;;;29.67;42.60;99802.94;4392122;32;32072;-88
2021/07/09 00:54:13;;;;;;;13.95;6.97;;;;;;;29.67;42.45;99821.16;4411012;32;32930;-89
2021/07/09 00:56:41;;;;;;;10.90;7.53;;;;;;;29.46;43.09;99811.03;4404901;32;33978;-89
2021/07/09 00:59:13;;;;;;;8.73;6.80;;;;;;;29.41;43.11;99816.19;4405865;32;33183;-88
2021/07/09 01:01:42;;;;;;;10.35;7.15;;;;;;;29.12;43.75;99809.72;4391520;32;33361;-89
2021/07/09 01:04:10;;;;;;;12.00;8.40;;;;;;;28.82;44.71;99812.38;4398809;32;32787;-89
2021/07/09 01:06:38;;;;;;;11.73;7.47;;;;;;;28.87;44.35;99821.84;4403386;32;33060;-89
2021/07/09 01:09:06;;;;;;;9.88;6.43;;;;;;;28.90;44.26;99808.72;4398048;32;32863;-88
2021/07/09 01:11:34;;;;;;;10.85;8.32;;;;;;;28.90;44.46;99802.44;4391504;32;34338;-88
2021/07/09 01:14:01;;;;;;;7.05;6.35;;;;;;;29.01;44.39;99799.31;4395578;32;33214;-89
2021/07/09 01:16:30;;;;;;;12.55;7.18;;;;;;;28.98;44.31;99805.13;4405486;32;33452;-89
2021/07/09 01:18:58;;;;;;;11.75;7.50;;;;;;;29.22;43.54;99799.41;4411206;32;32810;-89
2021/07/09 01:21:25;;;;;;;10.40;8.05;;;;;;;29.17;43.76;99798.28;4404063;32;33709;-88
2021/07/09 01:24:04;;;;;;;10.75;7.22;;;;;;;29.00;44.36;99803.03;4400224;32;33661;-88
2021/07/09 01:26:31;;;;;;;10.60;7.95;;;;;;;29.08;43.87;99800.25;4405442;32;34287;-88
2021/07/09 01:28:59;;;;;;;9.30;8.38;;;;;;;28.92;44.52;99801.25;4402840;32;32880;-88
2021/07/09 01:31:27;;;;;;;13.52;7.60;;;;;;;28.68;45.00;99799.59;4405938;32;33054;-88
2021/07/09 01:33:55;;;;;;;7.72;6.75;;;;;;;28.81;44.54;99810.66;4395464;32;33851;-87
2021/07/09 01:36:23;;;;;;;10.05;6.50;;;;;;;28.96;44.07;99807.16;4397216;32;34473;-88
2021/07/09 01:38:51;;;;;;;11.10;7.43;;;;;;;28.79;44.48;99801.03;4404839;32;32882;-86
2021/07/09 01:41:19;;;;;;;12.75;8.10;;;;;;;28.73;44.75;99797.19;4403658;32;32732;-87
2021/07/09 01:43:48;;;;;;;6.87;6.18;;;;;;;28.88;44.29;99804.50;4404786;32;34321;-87
2021/07/09 01:46:16;;;;;;;12.45;6.95;;;;;;;28.86;44.22;99803.84;4396163;32;33984;-87
2021/07/09 01:48:44;;;;;;;9.30;6.40;;;;;;;28.92;43.99;99803.13;4392913;32;33846;-87
2021/07/09 01:51:12;;;;;;;7.57;6.47;;;;;;;28.80;44.13;99795.41;4403917;32;33552;-87
2021/07/09 01:53:40;;;;;;;10.45;6.70;;;;;;;28.95;43.83;99802.75;4404186;32;33966;-87
2021/07/09 01:56:08;;;;;;;10.40;6.72;;;;;;;28.95;43.89;99800.03;4405269;32;34448;-87
2021/07/09 01:58:36;;;;;;;10.35;7.07;;;;;;;29.00;43.95;99803.03;4405010;32;32423;-87
2021/07/09 02:01:04;;;;;;;13.13;7.25;;;;;;;28.89;44.45;99811.63;4405469;32;34617;-88
2021/07/09 02:03:33;;;;;;;8.27;6.62;;;;;;;28.64;45.08;99801.00;4391565;32;32861;-88
2021/07/09 02:06:00;;;;;;;11.60;6.72;;;;;;;28.60;45.32;99810.53;4405009;32;34972;-87
2021/07/09 02:08:28;;;;;;;13.57;7.47;;;;;;;28.71;44.85;99803.81;4404323;32;32990;-88
2021/07/09 02:10:56;;;;;;;8.23;7.32;;;;;;;28.62;45.23;99800.31;4390904;32;32325;-88
2021/07/09 02:13:24;;;;;;;13.80;7.90;;;;;;;28.67;44.99;99792.47;4386877;32;34654;-88
2021/07/09 02:15:51;;;;;;;10.43;7.78;;;;;;;28.59;45.28;99792.56;4404937;32;34198;-88
2021/07/09 02:18:19;;;;;;;12.65;7.07;;;;;;;28.66;45.03;99792.66;4406312;32;33348;-87
2021/07/09 02:20:47;;;;;;;12.13;7.03;;;;;;;28.48;45.86;99793.81;4405441;32;33018;-87
2021/07/09 02:23:16;;;;;;;11.90;7.60;;;;;;;28.49;45.76;99789.25;4404395;32;34778;-87
2021/07/09 02:25:44;;;;;;;9.98;7.00;;;;;;;28.38;45.96;99785.09;4406394;32;34532;-87
2021/07/09 02:28:12;;;;;;;12.30;7.85;;;;;;;28.31;45.90;99790.38;4404456;32;33970;-87
2021/07/09 02:30:40;;;;;;;16.17;8.07;;;;;;;28.20;46.34;99790.81;4396906;32;33648;-86
2021/07/09 02:33:08;;;;;;;7.43;6.55;;;;;;;28.30;46.14;99796.00;4404525;32;34138;-86
2021/07/09 02:35:38;;;;;;;14.43;7.72;;;;;;;28.40;45.71;99787.63;4403884;32;34053;-87
2021/07/09 02:38:07;;;;;;;11.82;7.93;;;;;;;28.36;46.07;99791.75;4399002;32;34321;-86
2021/07/09 02:40:35;;;;;;;7.50;6.80;;;;;;;28.21;46.30;99792.50;4405001;32;32308;-87
2021/07/09 02:43:04;;;;;;;12.85;8.00;;;;;;;28.23;46.30;99795.84;4404254;32;32737;-86
2021/07/09 02:45:33;;;;;;;12.75;7.10;;;;;;;28.15;46.58;99798.62;4403963;32;33186;-87
2021/07/09 02:48:16;;;;;;;11.85;7.60;;;;;;;28.37;45.93;99793.41;4403513;32;33058;-87
2021/07/09 02:50:44;;;;;;;11.35;7.53;;;;;;;28.35;45.79;99787.34;4391454;32;32461;-88
2021/07/09 02:53:12;;;;;;;11.63;7.10;;;;;;;28.27;46.26;99791.75;4403287;32;33872;-88
2021/07/09 02:55:40;;;;;;;12.20;7.70;;;;;;;28.28;46.21;99788.00;4402833;32;33002;-88
2021/07/09 02:58:08;;;;;;;13.75;8.98;;;;;;;28.26;46.20;99783.81;4402181;32;33716;-88
2021/07/09 03:00:36;;;;;;;12.85;8.35;;;;;;;27.87;47.59;99794.75;4396514;32;34119;-88
2021/07/09 03:03:04;;;;;;;11.70;7.12;;;;;;;28.08;46.83;99786.81;4385154;32;32772;-87
2021/07/09 03:05:31;;;;;;;12.15;7.97;;;;;;;27.99;47.02;99785.19;4404747;32;34383;-87
2021/07/09 03:07:59;;;;;;;16.25;8.20;;;;;;;27.97;47.04;99785.38;4405290;32;33315;-87
2021/07/09 03:10:27;;;;;;;9.77;7.47;;;;;;;28.02;47.04;99779.41;4396354;32;33536;-87
2021/07/09 03:12:55;;;;;;;11.38;7.80;;;;;;;28.01;46.98;99780.41;4401837;32;33846;-87
2021/07/09 03:15:23;;;;;;;16.08;7.57;;;;;;;28.01;47.03;99785.84;4409725;32;33977;-87
2021/07/09 03:17:50;;;;;;;12.30;7.18;;;;;;;28.06;47.08;99795.16;4406427;32;34782;-87
2021/07/09 03:20:19;;;;;;;12.63;7.62;;;;;;;28.00;47.50;99789.56;4406576;32;33225;-87
2021/07/09 03:22:46;;;;;;;9.90;7.25;;;;;;;28.15;47.04;99792.34;4405599;32;33254;-87
2021/07/09 03:25:14;;;;;;;14.68;7.65;;;;;;;28.11;47.07;99791.06;4403196;32;33694;-87
2021/07/09 03:27:42;;;;;;;10.65;7.32;;;;;;;28.12;47.15;99795.44;4403569;32;33230;-88
2021/07/09 03:30:12;;;;;;;12.48;8.07;;;;;;;28.20;47.12;99798.97;4398276;32;33420;-89
2021/07/09 03:32:41;;;;;;;11.30;7.65;;;;;;;28.04;47.34;99796.34;4390159;32;32723;-89
2021/07/09 03:35:09;;;;;;;17.30;7.75;;;;;;;28.18;47.06;99787.41;4391126;32;34488;-89
2021/07/09 03:37:37;;;;;;;16.48;7.65;;;;;;;28.04;47.66;99788.19;4391698;32;32891;-89
2021/07/09 03:40:06;;;;;;;10.20;7.30;;;;;;;28.11;47.34;99785.63;4396744;32;33848;-89
2021/07/09 03:42:34;;;;;;;10.25;8.07;;;;;;;28.14;47.32;99775.22;4401667;32;34336;-88
2021/07/09 03:45:03;;;;;;;13.20;7.95;;;;;;;28.06;47.63;99778.88;4403882;32;33580;-88
2021/07/09 03:47:30;;;;;;;8.95;7.18;;;;;;;27.96;48.12;99783.66;4405029;32;34536;-87
2021/07/09 03:49:59;;;;;;;12.13;7.85;;;;;;;27.99;48.20;99793.31;4410732;32;35089;-87
2021/07/09 03:52:26;;;;;;;11.57;8.00;;;;;;;27.89;48.63;99798.13;4402413;32;33327;-87
2021/07/09 03:54:54;;;;;;;9.68;8.20;;;;;;;28.06;47.85;99800.56;4402491;32;34046;-87
2021/07/09 03:57:22;;;;;;;13.57;7.97;;;;;;;27.97;48.40;99795.37;4401200;32;32461;-87
2021/07/09 03:59:50;;;;;;;15.77;9.13;;;;;;;28.02;48.80;99798.41;4403951;32;34179;-89
2021/07/09 04:02:17;;;;;;;14.57;8.55;;;;;;;28.08;48.55;99794.97;4399850;32;33052;-90
2021/07/09 04:04:45;;;;;;;12.35;8.30;;;;;;;28.11;48.27;99802.75;4405267;32;33607;-90
2021/07/09 04:07:13;;;;;;;11.27;9.00;;;;;;;27.96;48.79;99799.94;4406509;32;33549;-90
2021/07/09 04:09:41;;;;;;;12.63;9.63;;;;;;;28.13;48.72;99797.97;4406152;32;33713;-89
2021/07/09 04:12:09;;;;;;;11.20;8.60;;;;;;;28.11;48.95;99801.91;4409604;32;33929;-89
2021/07/09 04:14:36;;;;;;;12.30;9.05;;;;;;;28.24;48.70;99813.00;4406354;32;34587;-90
2021/07/09 04:17:04;;;;;;;11.90;7.57;;;;;;;28.28;49.22;99798.88;4406196;32;33443;-90
2021/07/09 04:19:32;;;;;;;12.65;8.52;;;;;;;28.08;49.33;99801.22;4406028;32;33429;-89
2021/07/09 04:22:00;;;;;;;13.60;8.75;;;;;;;28.12;49.59;99803.59;4405602;32;34101;-90
2021/07/09 04:24:27;;;;;;;8.63;7.85;;;;;;;28.32;48.83;99804.78;4394291;32;33218;-89
2021/07/09 04:26:55;;;;;;;15.38;8.75;;;;;;;28.39;48.60;99805.81;4399672;32;32902;-89
2021/07/09 04:29:23;;;;;;;12.13;8.55;;;;;;;28.27;49.46;99788.22;4402323;32;32735;-88
2021/07/09 04:31:54;;;;;;;17.37;8.68;;;;;;;28.19;50.08;99789.09;4405147;32;34020;-88
2021/07/09 04:34:22;;;;;;;18.00;8.93;;;;;;;27.73;51.72;99799.09;4404249;32;34739;-87
2021/07/09 04:36:50;;;;;;;17.77;9.40;;;;;;;27.61;52.57;99793.16;4394315;32;33450;-87
2021/07/09 04:39:18;;;;;;;16.77;9.35;;;;;;;27.84;51.53;99782.38;4404632;32;32682;-86
2021/07/09 04:41:46;;;;;;;15.40;9.88;;;;;;;28.08;50.84;99786.81;4395241;32;33591;-86
2021/07/09 04:44:15;;;;;;;12.27;9.05;;;;;;;28.15;51.09;99798.62;4398357;32;33968;-86
2021/07/09 04:46:42;;;;;;;18.83;9.57;;;;;;;28.11;51.45;99791.91;4416309;32;34871;-87
2021/07/09 04:49:10;;;;;;;13.32;9.55;;;;;;;27.97;52.11;99787.25;4404531;32;33897;-87
2021/07/09 04:51:38;;;;;;;22.48;9.85;;;;;;;28.04;51.91;99782.75;4371000;32;32819;-87
2021/07/09 04:54:05;;;;;;;21.45;10.30;;;;;;;27.90;52.46;99787.09;4407792;32;34939;-87
2021/07/09 04:56:34;;;;;;;16.77;10.00;;;;;;;27.99;52.35;99801.47;4401920;32;33978;-86
2021/07/09 04:59:01;;;;;;;15.70;10.07;;;;;;;28.20;51.85;99804.38;4384958;32;33423;-86
2021/07/09 05:01:33;;;;;;;16.43;10.50;;;;;;;28.07;52.00;99801.41;4411204;32;33987;-86
2021/07/09 05:04:01;;;;;;;15.05;9.65;;;;;;;27.95;52.21;99808.25;4400043;32;34080;-86
2021/07/09 05:06:28;;;;;;;17.92;10.75;;;;;;;27.89;52.18;99815.25;4400475;32;33326;-86
2021/07/09 05:08:56;;;;;;;15.35;9.75;;;;;;;27.91;52.41;99818.63;4402794;32;33477;-86
2021/07/09 05:11:24;;;;;;;21.20;10.40;;;;;;;27.56;53.08;99825.41;4404715;32;33786;-86
2021/07/09 05:13:51;;;;;;;11.12;9.38;;;;;;;27.79;52.48;99826.34;4386077;32;33560;-86
2021/07/09 05:16:19;;;;;;;11.88;9.48;;;;;;;28.01;52.05;99816.56;4395181;32;33852;-86
2021/07/09 05:18:47;;;;;;;15.48;9.82;;;;;;;27.95;52.54;99824.56;4397102;32;32980;-86
2021/07/09 05:21:15;;;;;;;12.13;9.38;;;;;;;28.12;51.55;99815.28;4397658;32;32854;-86
2021/07/09 05:23:42;;;;;;;16.00;10.40;;;;;;;28.19;51.61;99812.69;4393284;32;34447;-85
2021/07/09 05:26:10;;;;;;;12.88;9.35;;;;;;;28.53;50.78;99801.41;4405698;32;34084;-86
2021/07/09 05:28:38;;;;;;;16.27;9.55;;;;;;;28.51;51.47;99808.91;4390257;32;34037;-86
2021/07/09 05:31:06;;;;;;;16.98;9.18;;;;;;;28.78;50.32;99808.34;4399794;32;34009;-86
2021/07/09 05:33:34;;;;;;;16.45;8.00;;;;;;;28.88;50.08;99802.63;4400951;32;33692;-86
2021/07/09 05:36:02;;;;;;;15.63;8.88;;;;;;;29.09;50.12;99789.19;4379549;32;32939;-86
2021/07/09 05:38:30;;;;;;;17.45;8.98;;;;;;;29.19;48.96;99802.50;4407620;32;33106;-86
2021/07/09 05:40:58;;;;;;;14.45;8.68;;;;;;;29.21;49.53;99799.59;4397912;32;34048;-86
2021/07/09 05:43:26;;;;;;;15.13;8.85;;;;;;;29.45;49.69;99807.47;4381122;32;33439;-86
2021/07/09 05:45:54;;;;;;;13.77;8.93;;;;;;;29.22;48.73;99829.31;4407541;32;33192;-87
2021/07/09 05:48:22;;;;;;;16.45;8.73;;;;;;;29.55;48.76;99828.97;4396188;32;33379;-87
2021/07/09 05:50:50;;;;;;;16.58;8.52;;;;;;;29.82;48.31;99814.66;4393310;32;33924;-88
2021/07/09 05:53:18;;;;;;;17.27;8.65;;;;;;;29.76;47.97;99812.69;4396370;32;33425;-88
2021/07/09 05:55:46;;;;;;;15.18;8.10;;;;;;;29.82;47.92;99817.41;4394352;32;34380;-88
2021/07/09 05:58:15;;;;;;;22.62;8.25;;;;;;;29.53;48.93;99814.66;4404959;32;34217;-88
2021/07/09 06:00:42;;;;;;;16.30;8.65;;;;;;;29.88;48.20;99823.09;4375718;32;33156;-87
2021/07/09 06:03:10;;;;;;;13.05;8.05;;;;;;;30.15;46.93;99819.69;4406432;32;33663;-87
2021/07/09 06:05:38;;;;;;;15.82;8.10;;;;;;;30.16;46.50;99826.81;4394635;32;34313;-87
2021/07/09 06:08:07;;;;;;;11.35;7.57;;;;;;;29.65;47.46;99828.69;4397421;32;33248;-87
2021/07/09 06:10:36;;;;;;;8.85;7.65;;;;;;;30.02;47.04;99824.94;4403860;32;33997;-88
2021/07/09 06:13:04;;;;;;;13.73;8.05;;;;;;;29.99;46.73;99841.66;4399092;32;33797;-85
2021/07/09 06:15:32;;;;;;;10.43;8.25;;;;;;;29.83;47.32;99832.69;4403840;32;34068;-86
2021/07/09 06:18:19;;;;;;;11.23;7.82;;;;;;;30.09;47.26;99829.41;4392040;32;33163;-85
2021/07/09 06:20:46;;;;;;;13.25;7.82;;;;;;;29.51;47.56;99833.06;4403544;32;34357;-85
2021/07/09 06:23:15;;;;;;;14.10;7.82;;;;;;;29.37;48.66;99847.53;4391011;32;33023;-85
2021/07/09 06:25:43;;;;;;;9.18;7.05;;;;;;;29.53;47.71;99836.44;4404469;32;34924;-86
2021/07/09 06:28:10;;;;;;;16.25;8.02;;;;;;;29.46;48.39;99830.06;4402055;32;33827;-85
2021/07/09 06:30:38;;;;;;;13.20;7.50;;;;;;;29.65;47.18;99824.06;4405186;32;34138;-85
2021/07/09 06:33:08;;;;;;;17.10;8.32;;;;;;;29.54;48.19;99808.22;4401870;32;33329;-85
2021/07/09 06:35:36;;;;;;;14.32;7.47;;;;;;;29.28;48.08;99812.25;4400830;32;34492;-85
2021/07/09 06:38:05;;;;;;;13.38;8.30;;;;;;;29.29;48.51;99800.34;4393364;32;32978;-85
2021/07/09 06:40:33;;;;;;;14.40;8.05;;;;;;;29.06;48.55;99807.75;4392029;32;34696;-85
2021/07/09 06:43:01;;;;;;;16.50;7.53;;;;;;;28.83;49.91;99797.75;4406331;32;33930;-86
2021/07/09 06:45:29;;;;;;;15.05;7.00;;;;;;;28.92;49.35;99805.84;4397011;32;33447;-85
2021/07/09 06:47:56;;;;;;;14.87;8.02;;;;;;;28.84;49.04;99799.44;4403590;32;33097;-86
2021/07/09 06:50:24;;;;;;;15.55;7.47;;;;;;;28.86;49.41;99801.13;4392015;32;34744;-85
2021/07/09 06:52:51;;;;;;;12.55;7.72;;;;;;;28.36;50.14;99800.72;4384361;32;33614;-85
2021/07/09 06:55:20;;;;;;;10.45;7.00;;;;;;;28.80;49.59;99792.69;4394095;32;34805;-84
2021/07/09 06:57:48;;;;;;;14.10;7.15;;;;;;;28.74;48.98;99801.59;4406331;32;34412;-85
2021/07/09 07:00:17;;;;;;;11.93;7.07;;;;;;;28.70;49.62;99818.44;4400502;32;32955;-85
2021/07/09 07:02:46;;;;;;;16.65;6.87;;;;;;;28.81;49.02;99804.38;4400566;32;33907;-86
2021/07/09 07:05:15;;;;;;;13.82;6.65;;;;;;;28.42;49.48;99813.56;4399124;32;33720;-85
2021/07/09 07:07:42;;;;;;;11.32;7.55;;;;;;;28.77;51.08;99797.63;4387889;32;33221;-86
2021/07/09 07:10:12;;;;;;;12.20;7.90;;;;;;;28.42;52.41;99810.00;4382278;32;33665;-85
2021/07/09 07:12:42;;;;;;;15.57;8.20;;;;;;;27.62;55.84;99818.41;4395356;32;33199;-84
2021/07/09 07:15:10;;;;;;;11.50;8.48;;;;;;;27.59;57.02;99821.50;4390757;32;33024;-85
2021/07/09 07:17:38;;;;;;;14.68;7.45;;;;;;;27.47;58.09;99834.59;4384147;32;32698;-84
2021/07/09 07:20:06;;;;;;;16.58;8.20;;;;;;;27.31;57.76;99828.19;4397520;32;34102;-84
2021/07/09 07:22:34;;;;;;;11.32;8.02;;;;;;;27.09;58.99;99845.19;4401918;32;33497;-84
2021/07/09 07:25:02;;;;;;;11.65;7.70;;;;;;;26.55;59.79;99858.41;4404486;32;33891;-85
2021/07/09 07:27:30;;;;;;;14.75;8.77;;;;;;;26.63;61.16;99874.62;4386325;32;32432;-84
2021/07/09 07:29:58;;;;;;;15.40;8.15;;;;;;;26.96;59.82;99866.50;4391900;32;33219;-85
2021/07/09 07:32:26;;;;;;;13.02;8.60;;;;;;;26.93;59.90;99861.44;4401234;32;34072;-85
2021/07/09 07:34:54;;;;;;;15.75;8.20;;;;;;;26.21;62.42;99875.59;4399181;32;33295;-84
2021/07/09 07:37:22;;;;;;;15.85;9.75;;;;;;;26.11;62.80;99871.31;4408918;32;33305;-84
2021/07/09 07:39:50;;;;;;;12.20;9.20;;;;;;;26.35;62.61;99857.84;4396721;32;35574;-85
2021/07/09 07:42:18;;;;;;;13.90;8.23;;;;;;;26.13;63.37;99861.19;4386431;32;33064;-84
2021/07/09 07:44:51;;;;;;;16.08;8.60;;;;;;;25.79;64.07;99868.34;4393856;32;33307;-84
2021/07/09 07:47:21;;;;;;;13.93;9.25;;;;;;;25.88;63.64;99844.06;4400309;32;32431;-85
2021/07/09 07:49:49;;;;;;;22.58;8.68;;;;;;;26.00;63.68;99831.91;4411088;32;32908;-85
2021/07/09 07:52:17;;;;;;;10.70;7.95;;;;;;;25.72;64.66;99867.28;4393289;32;34197;-84
2021/07/09 07:54:45;;;;;;;15.27;8.60;;;;;;;25.91;63.65;99855.38;4401196;32;33953;-85
2021/07/09 07:57:12;;;;;;;19.98;9.93;;;;;;;26.00;63.31;99842.72;4395230;32;34215;-85
2021/07/09 07:59:41;;;;;;;10.23;9.23;;;;;;;26.32;62.94;99846.50;4393644;32;32824;-85
2021/07/09 08:02:09;;;;;;;11.73;9.38;;;;;;;26.59;61.59;99831.81;4402021;32;34612;-85
2021/07/09 08:04:37;;;;;;;15.63;8.82;;;;;;;26.68;61.68;99823.56;4400812;32;33065;-85
2021/07/09 08:07:05;;;;;;;14.57;8.98;;;;;;;26.72;62.13;99827.59;4396077;32;32319;-86
2021/07/09 08:09:33;;;;;;;13.00;8.68;;;;;;;26.85;61.69;99832.50;4411376;32;34835;-85
2021/07/09 08:12:01;;;;;;;16.20;8.63;;;;;;;27.06;61.75;99846.38;4399122;32;33915;-85
2021/07/09 08:14:29;;;;;;;11.85;9.38;;;;;;;27.12;61.89;99841.31;4404172;32;33891;-85
2021/07/09 08:16:56;;;;;;;17.37;9.73;;;;;;;27.11;62.76;99848.59;4399801;32;32780;-85
2021/07/09 08:19:24;;;;;;;11.55;8.82;;;;;;;27.13;62.32;99851.97;4401234;32;35003;-85
2021/07/09 08:21:53;;;;;;;19.02;9.00;;;;;;;26.94;62.93;99868.56;4411379;32;33758;-85
2021/07/09 08:24:20;;;;;;;15.38;8.57;;;;;;;27.22;60.19;99869.06;4385544;32;34527;-85
2021/07/09 08:26:48;;;;;;;16.45;8.90;;;;;;;27.47;60.34;99878.81;4400264;32;34293;-85
2021/07/09 08:29:16;;;;;;;11.73;8.07;;;;;;;27.54;59.93;99876.28;4386304;32;34283;-85
2021/07/09 08:31:57;;;;;;;9.98;8.85;;;;;;;27.72;59.67;99878.75;4404210;32;34844;-85
2021/07/09 08:34:25;;;;;;;20.08;8.55;;;;;;;27.80;59.23;99887.72;4403082;32;33569;-85
2021/07/09 08:36:53;;;;;;;12.90;8.95;;;;;;;27.71;59.64;99894.19;4402354;32;33333;-85
2021/07/09 08:39:20;;;;;;;13.82;9.23;;;;;;;27.83;59.64;99901.97;4402829;32;34873;-85
2021/07/09 08:41:49;;;;;;;20.58;9.27;;;;;;;27.95;59.79;99906.81;4395757;32;33977;-84
2021/07/09 08:44:17;;;;;;;16.95;8.70;;;;;;;28.26;57.83;99904.13;4401709;32;34119;-85
2021/07/09 08:46:45;;;;;;;21.50;8.75;;;;;;;28.55;58.09;99899.88;4412592;32;34550;-85
2021/07/09 08:49:16;;;;;;;15.57;9.30;;;;;;;28.74;58.00;99895.84;4411673;32;32856;-85
2021/07/09 08:51:44;;;;;;;13.18;7.85;;;;;;;28.84;56.98;99908.16;4394848;32;34153;-85
2021/07/09 08:54:14;;;;;;;14.05;8.50;;;;;;;29.11;56.55;99897.75;4406438;32;33578;-85
2021/07/09 08:56:43;;;;;;;13.25;7.72;;;;;;;29.44;55.95;99905.59;4428766;32;33475;-85
2021/07/09 08:59:11;;;;;;;13.05;7.65;;;;;;;29.41;55.20;99901.34;4386924;32;33265;-85
2021/07/09 09:01:51;;;;;;;12.27;7.18;;;;;;;29.29;54.42;99903.72;4408515;32;33954;-85
2021/07/09 09:04:43;;;;;;;9.70;7.10;;;;;;;29.30;54.68;99891.78;4406398;32;33881;-85
2021/07/09 09:07:14;;;;;;;12.07;7.35;;;;;;;29.49;51.88;99881.41;4373155;32;32381;-85
2021/07/09 09:09:42;;;;;;;14.18;7.40;;;;;;;29.01;53.39;99880.88;4411012;32;33244;-85
2021/07/09 09:12:17;;;;;;;16.83;7.72;;;;;;;28.97;54.98;99883.09;4402764;32;33074;-85
2021/07/09 09:14:47;;;;;;;15.82;7.28;;;;;;;28.95;54.55;99882.44;4409616;32;34340;-86
2021/07/09 09:17:35;;;;;;;18.98;7.97;;;;;;;28.84;53.62;99886.41;4383259;32;33353;-85
2021/07/09 09:20:07;;;;;;;10.15;7.82;;;;;;;28.90;54.55;99881.25;4389105;32;32824;-85
2021/07/09 09:22:38;;;;;;;12.40;8.27;;;;;;;28.89;54.23;99874.13;4405918;32;33988;-86
2021/07/09 09:25:07;;;;;;;15.35;8.00;;;;;;;28.82;54.81;99855.87;4396687;32;33060;-85
2021/07/09 09:27:35;;;;;;;14.13;7.78;;;;;;;28.83;54.71;99856.69;4401239;32;33728;-85
2021/07/09 09:30:14;;;;;;;12.23;7.75;;;;;;;29.00;54.50;99858.25;4399467;32;33371;-86
2021/07/09 09:32:46;;;;;;;12.05;8.13;;;;;;;28.84;55.04;99859.22;4405019;32;32993;-86
2021/07/09 09:35:28;;;;;;;14.43;7.50;;;;;;;28.89;54.45;99844.25;4410176;32;34446;-85
2021/07/09 09:37:59;;;;;;;17.15;7.80;;;;;;;28.43;56.47;99825.28;4408471;32;32982;-85
2021/07/09 09:40:28;;;;;;;11.70;8.20;;;;;;;28.21;57.76;99857.66;4403951;32;32791;-85
2021/07/09 09:42:56;;;;;;;12.07;7.53;;;;;;;28.27;57.96;99850.66;4414657;32;34195;-85
2021/07/09 09:45:25;;;;;;;11.05;6.82;;;;;;;28.06;58.24;99848.59;4397712;32;93104;-85
2021/07/09 09:48:03;;;;;;;11.57;7.95;;;;;;;27.89;57.43;99836.97;4399840;32;32687;-85
2021/07/09 09:50:31;;;;;;;11.20;7.78;;;;;;;27.57;58.74;99824.38;4402409;32;33092;-86
2021/07/09 09:52:59;;;;;;;9.88;7.87;;;;;;;27.59;59.35;99814.22;4394024;32;33754;-85
2021/07/09 09:55:31;;;;;;;18.12;8.93;;;;;;;27.82;58.64;99787.13;4399609;32;33578;-85
2021/07/09 09:58:12;;;;;;;19.75;9.55;;;;;;;28.09;57.98;99780.34;4400559;32;33514;-85
2021/07/09 10:00:42;;;;;;;11.98;7.82;;;;;;;28.03;57.61;99783.81;4391001;32;33794;-85
2021/07/09 10:03:21;;;;;;;13.05;8.07;;;;;;;28.15;57.64;99785.06;4405783;32;34802;-85
2021/07/09 10:05:50;;;;;;;14.82;8.77;;;;;;;27.95;59.51;99819.13;4405015;32;33313;-85
2021/07/09 10:08:20;;;;;;;22.05;8.77;;;;;;;28.42;58.43;99820.88;4398416;32;32481;-85
2021/07/09 10:10:50;;;;;;;12.77;7.47;;;;;;;28.56;59.69;99830.94;4403073;32;33983;-85
2021/07/09 10:13:19;;;;;;;14.55;9.05;;;;;;;28.67;58.54;99838.66;4406618;32;34671;-85
2021/07/09 10:15:53;;;;;;;12.75;7.87;;;;;;;28.77;58.57;99836.53;4399945;32;34579;-85
2021/07/09 10:18:22;;;;;;;20.90;7.72;;;;;;;29.34;56.53;99816.97;4404364;32;33950;-85
2021/07/09 10:20:51;;;;;;;16.23;8.85;;;;;;;29.27;57.56;99824.16;4402736;32;33920;-85
2021/07/09 10:23:20;;;;;;;14.05;8.55;;;;;;;29.62;55.63;99820.88;4405192;32;34489;-85
2021/07/09 10:25:50;;;;;;;14.35;8.73;;;;;;;30.02;54.60;99812.16;4409644;32;34064;-85
2021/07/09 10:28:20;;;;;;;11.98;7.30;;;;;;;30.29;52.67;99813.34;4397140;32;33208;-85
2021/07/09 10:30:50;;;;;;;15.30;8.18;;;;;;;30.17;52.64;99812.16;4404358;32;34297;-85
2021/07/09 10:33:33;;;;;;;10.65;6.85;;;;;;;29.99;54.13;99815.28;4389673;32;33274;-86
2021/07/09 10:36:05;;;;;;;11.40;7.82;;;;;;;30.17;52.16;99820.31;4404144;32;32854;-85
2021/07/09 10:38:42;;;;;;;11.95;6.68;;;;;;;29.98;52.55;99818.19;4404821;32;32932;-85
2021/07/09 10:41:19;;;;;;;16.45;7.75;;;;;;;30.22;51.93;99823.31;4401826;32;34949;-85
2021/07/09 10:44:15;;;;;;;9.35;6.55;;;;;;;29.91;52.73;99822.69;4388442;32;33582;-86
2021/07/09 10:46:47;;;;;;;19.50;6.97;;;;;;;30.08;51.20;99819.56;4399187;32;34162;-85
2021/07/09 10:49:49;;;;;;;16.17;6.97;;;;;;;30.07;52.02;99811.59;4396795;32;32792;-85
2021/07/09 10:52:49;;;;;;;16.00;7.45;;;;;;;30.43;50.67;99830.63;4406208;32;34900;-85
2021/07/09 10:55:28;;;;;;;25.88;7.25;;;;;;;30.48;51.11;99835.50;4403336;32;34348;-85
2021/07/09 10:58:18;;;;;;;15.02;7.00;;;;;;;30.47;50.48;99831.94;4398987;32;34758;-85
2021/07/09 11:00:47;;;;;;;9.95;7.40;;;;;;;30.36;50.65;99843.34;4404313;32;32837;-84
2021/07/09 11:03:22;;;;;;;8.30;6.15;;;;;;;30.24;50.64;99834.00;4403505;32;32779;-85
2021/07/09 11:06:33;;;;;;;15.70;7.37;;;;;;;30.49;50.48;99838.03;4394740;32;35112;-85
2021/07/09 11:09:08;;;;;;;10.85;7.40;;;;;;;30.68;50.65;99842.00;4402170;32;33392;-85
2021/07/09 11:11:43;;;;;;;13.23;6.43;;;;;;;30.59;50.76;99848.59;4402614;32;32643;-85
2021/07/09 11:14:39;;;;;;;15.40;6.90;;;;;;;30.50;51.12;99838.88;4410914;32;34003;-85
2021/07/09 11:17:21;;;;;;;11.93;6.12;;;;;;;30.22;51.60;99831.47;4402299;32;34024;-85
2021/07/09 11:20:17;;;;;;;12.82;5.93;;;;;;;30.54;50.94;99821.09;4408181;32;33896;-85
2021/07/09 11:22:46;;;;;;;12.18;5.93;;;;;;;30.55;49.63;99811.88;4392070;32;33124;-85
2021/07/09 11:25:14;;;;;;;17.45;7.07;;;;;;;30.30;49.30;99803.28;4406318;32;35731;-85
2021/07/09 11:27:46;;;;;;;13.45;6.55;;;;;;;30.28;50.25;99795.28;4385572;32;33703;-85
2021/07/09 11:30:19;;;;;;;15.90;6.65;;;;;;;30.83;49.41;99795.59;4403481;32;33534;-85
2021/07/09 11:32:49;;;;;;;19.62;7.05;;;;;;;30.93;49.29;99797.97;4395507;32;33474;-85
2021/07/09 11:35:17;;;;;;;11.95;7.57;;;;;;;31.15;49.27;99788.69;4404903;32;34259;-85
2021/07/09 11:37:45;;;;;;;10.75;6.00;;;;;;;31.07;49.18;99794.28;4407932;32;33577;-85
2021/07/09 11:40:16;;;;;;;13.40;6.22;;;;;;;31.21;47.97;99804.22;4389139;32;34211;-85